createdAt,value
2023-03-06T00:02:10.221Z,70.56
2023-03-06T00:04:37.789Z,70.54
2023-03-06T00:07:05.377Z,70.58
2023-03-06T00:09:32.976Z,70.48
2023-03-06T00:12:00.401Z,70.40
2023-03-06T00:14:27.925Z,70.37
2023-03-06T00:16:58.181Z,70.65
2023-03-06T00:19:25.630Z,70.61
2023-03-06T00:21:53.156Z,70.50
2023-03-06T00:24:20.659Z,70.57
2023-03-06T00:26:48.265Z,70.77
2023-03-06T00:29:15.822Z,70.74
2023-03-06T00:31:46.426Z,70.53
2023-03-06T00:34:13.965Z,70.61
2023-03-06T00:36:41.961Z,70.47
2023-03-06T00:39:09.585Z,70.62
2023-03-06T00:41:37.057Z,70.60
2023-03-06T00:44:04.491Z,70.44
2023-03-06T00:46:32.038Z,70.50
2023-03-06T00:48:59.704Z,70.37
2023-03-06T00:51:27.184Z,70.43
2023-03-06T00:53:54.862Z,70.33
2023-03-06T00:56:22.435Z,70.36
2023-03-06T00:58:49.920Z,70.52
2023-03-06T01:01:17.472Z,70.67
2023-03-06T01:03:45.002Z,70.65
2023-03-06T01:06:12.516Z,70.68
2023-03-06T01:08:40.077Z,70.62
2023-03-06T01:11:07.575Z,70.50
2023-03-06T01:13:35.135Z,70.54
2023-03-06T01:16:02.734Z,70.55
2023-03-06T01:18:30.458Z,70.52
2023-03-06T01:20:57.901Z,70.67
2023-03-06T01:23:25.510Z,70.53
2023-03-06T01:25:53.034Z,70.69
2023-03-06T01:28:20.520Z,70.88
2023-03-06T01:30:48.078Z,70.84
2023-03-06T01:33:15.779Z,70.88
2023-03-06T01:35:43.291Z,71.05
2023-03-06T01:38:10.879Z,71.17
2023-03-06T01:40:38.447Z,71.23
2023-03-06T01:43:05.909Z,71.10
2023-03-06T01:45:33.453Z,71.23
2023-03-06T01:48:00.934Z,71.29
2023-03-06T01:50:28.422Z,71.23
2023-03-06T01:52:56.008Z,71.30
2023-03-06T01:55:23.528Z,71.46
2023-03-06T01:57:52.852Z,71.32
2023-03-06T02:00:20.513Z,71.40
2023-03-06T02:02:47.957Z,71.49
2023-03-06T02:05:15.793Z,71.56
2023-03-06T02:07:43.313Z,71.78
2023-03-06T02:10:10.771Z,71.88
2023-03-06T02:12:38.641Z,71.84
2023-03-06T02:15:06.148Z,71.83
2023-03-06T02:17:33.724Z,71.77
2023-03-06T02:20:01.320Z,71.78
2023-03-06T02:22:28.934Z,71.90
2023-03-06T02:24:56.435Z,71.86
2023-03-06T02:27:23.922Z,71.86
2023-03-06T02:29:51.465Z,71.84
2023-03-06T02:32:18.972Z,71.81
2023-03-06T02:34:46.529Z,71.87
2023-03-06T02:37:14.107Z,71.89
2023-03-06T02:39:41.570Z,71.99
2023-03-06T02:42:09.139Z,72.07
2023-03-06T02:44:36.630Z,72.10
2023-03-06T02:47:04.081Z,72.03
2023-03-06T02:49:31.529Z,72.10
2023-03-06T02:51:58.978Z,72.12
2023-03-06T02:54:26.402Z,72.15
2023-03-06T02:56:53.960Z,72.02
2023-03-06T02:59:21.473Z,71.93
2023-03-06T03:01:49.035Z,71.84
2023-03-06T03:04:16.594Z,71.71
2023-03-06T03:06:44.192Z,71.50
2023-03-06T03:09:11.680Z,71.57
2023-03-06T03:11:39.181Z,71.51
2023-03-06T03:14:06.680Z,71.49
2023-03-06T03:16:34.180Z,71.57
2023-03-06T03:19:01.657Z,71.37
2023-03-06T03:21:29.334Z,71.30
2023-03-06T03:23:56.847Z,71.29
2023-03-06T03:26:24.356Z,71.19
2023-03-06T03:28:51.890Z,71.28
2023-03-06T03:31:19.721Z,71.25
2023-03-06T03:33:47.262Z,71.24
2023-03-06T03:36:14.807Z,71.34
2023-03-06T03:38:42.294Z,71.36
2023-03-06T03:41:09.830Z,71.24
2023-03-06T03:43:37.328Z,71.26
2023-03-06T03:46:06.045Z,71.32
2023-03-06T03:48:33.669Z,71.40
2023-03-06T03:51:01.212Z,71.50
2023-03-06T03:53:28.703Z,71.57
2023-03-06T03:55:56.171Z,71.67
2023-03-06T03:58:23.641Z,71.70
2023-03-06T04:00:51.129Z,71.75
2023-03-06T04:03:18.575Z,71.86
2023-03-06T04:05:46.238Z,71.95
2023-03-06T04:08:13.750Z,72.06
2023-03-06T04:10:41.505Z,72.08
2023-03-06T04:13:10.146Z,72.12
2023-03-06T04:15:37.827Z,72.11
2023-03-06T04:18:05.268Z,72.06
2023-03-06T04:20:32.751Z,72.07
2023-03-06T04:23:00.361Z,72.08
2023-03-06T04:25:27.809Z,71.92
2023-03-06T04:27:55.285Z,71.78
2023-03-06T04:30:22.854Z,71.70
2023-03-06T04:32:50.293Z,71.58
2023-03-06T04:35:18.146Z,71.43
2023-03-06T04:37:45.702Z,71.37
2023-03-06T04:40:13.191Z,71.31
2023-03-06T04:42:40.827Z,71.15
2023-03-06T04:45:08.335Z,70.87
2023-03-06T04:47:35.774Z,70.82
2023-03-06T04:50:03.964Z,70.76
2023-03-06T04:52:32.007Z,70.64
2023-03-06T04:54:59.483Z,70.73
2023-03-06T04:57:26.981Z,70.73
2023-03-06T04:59:54.442Z,70.48
2023-03-06T05:02:24.188Z,70.19
2023-03-06T05:04:51.932Z,70.10
2023-03-06T05:07:19.400Z,69.87
2023-03-06T05:09:46.876Z,69.75
2023-03-06T05:12:14.454Z,69.90
2023-03-06T05:14:42.255Z,69.99
2023-03-06T05:17:09.855Z,70.01
2023-03-06T05:19:37.325Z,69.95
2023-03-06T05:22:04.802Z,70.02
2023-03-06T05:24:32.386Z,69.82
2023-03-06T05:26:59.947Z,69.87
2023-03-06T05:29:27.602Z,69.98
2023-03-06T05:31:55.251Z,70.08
2023-03-06T05:34:22.815Z,70.00
2023-03-06T05:36:50.266Z,70.06
2023-03-06T05:39:17.859Z,69.98
2023-03-06T05:41:45.323Z,69.74
2023-03-06T05:44:12.825Z,69.72
2023-03-06T05:46:40.299Z,69.72
2023-03-06T05:49:07.915Z,69.73
2023-03-06T05:51:35.615Z,69.54
2023-03-06T05:54:03.038Z,69.51
2023-03-06T05:56:30.552Z,69.49
2023-03-06T05:58:58.028Z,69.23
2023-03-06T06:01:25.455Z,69.32
2023-03-06T06:03:53.099Z,69.27
2023-03-06T06:06:20.621Z,69.36
2023-03-06T06:08:48.166Z,69.63
2023-03-06T06:11:15.770Z,69.35
2023-03-06T06:13:43.307Z,69.02
2023-03-06T06:16:11.654Z,68.91
2023-03-06T06:18:41.129Z,68.79
2023-03-06T06:21:08.958Z,68.59
2023-03-06T06:23:36.434Z,68.64
2023-03-06T06:26:04.164Z,68.23
2023-03-06T06:28:31.653Z,68.14
2023-03-06T06:30:59.109Z,67.68
2023-03-06T06:33:26.756Z,67.01
2023-03-06T06:35:54.224Z,66.86
2023-03-06T06:38:21.730Z,66.69
2023-03-06T06:41:11.653Z,66.20
2023-03-06T06:43:36.656Z,66.41
2023-03-06T06:46:28.291Z,65.83
2023-03-06T06:48:54.585Z,65.91
2023-03-06T06:51:22.706Z,66.02
2023-03-06T06:53:50.171Z,65.81
2023-03-06T06:56:17.774Z,65.96
2023-03-06T06:58:45.404Z,65.39
2023-03-06T07:01:13.079Z,65.45
2023-03-06T07:03:40.737Z,65.22
2023-03-06T07:06:08.347Z,64.90
2023-03-06T07:08:35.826Z,64.29
2023-03-06T07:11:03.306Z,64.56
2023-03-06T07:13:30.802Z,65.01
2023-03-06T07:15:58.426Z,64.51
2023-03-06T07:18:25.937Z,64.42
2023-03-06T07:20:53.453Z,64.65
2023-03-06T07:23:20.911Z,64.29
2023-03-06T07:25:48.353Z,64.38
2023-03-06T07:28:18.486Z,64.39
2023-03-06T07:30:46.132Z,64.34
2023-03-06T07:33:13.587Z,64.35
2023-03-06T07:35:41.129Z,64.52
2023-03-06T07:38:08.727Z,64.02
2023-03-06T07:40:36.273Z,64.22
2023-03-06T07:43:18.356Z,63.55
2023-03-06T07:45:46.995Z,63.99
2023-03-06T07:48:14.988Z,63.97
2023-03-06T07:50:43.352Z,63.59
2023-03-06T07:53:11.645Z,63.34
2023-03-06T07:55:39.229Z,63.50
2023-03-06T07:58:06.802Z,63.10
2023-03-06T08:00:34.355Z,62.92
2023-03-06T08:03:01.898Z,62.58
2023-03-06T08:05:29.428Z,62.73
2023-03-06T08:07:57.473Z,62.87
2023-03-06T08:10:25.006Z,62.34
2023-03-06T08:12:52.567Z,61.63
2023-03-06T08:15:19.994Z,61.41
2023-03-06T08:17:47.582Z,61.40
2023-03-06T08:20:15.019Z,62.17
2023-03-06T08:22:42.560Z,61.75
2023-03-06T08:25:10.185Z,61.49
2023-03-06T08:27:37.722Z,61.58
2023-03-06T08:30:05.448Z,61.53
2023-03-06T08:32:32.951Z,61.64
2023-03-06T08:35:00.448Z,61.34
2023-03-06T08:37:27.926Z,61.76
2023-03-06T08:39:55.524Z,60.55
2023-03-06T08:42:22.956Z,60.68
2023-03-06T08:44:50.713Z,61.33
2023-03-06T08:47:18.225Z,60.77
2023-03-06T08:49:45.711Z,60.83
2023-03-06T08:52:13.256Z,60.43
2023-03-06T08:54:40.807Z,60.80
2023-03-06T08:57:09.192Z,60.57
2023-03-06T08:59:36.663Z,60.26
2023-03-06T09:02:05.457Z,60.45
2023-03-06T09:04:32.987Z,60.58
2023-03-06T09:07:00.455Z,60.22
2023-03-06T09:09:27.984Z,59.87
2023-03-06T09:11:56.338Z,59.49
2023-03-06T09:14:23.892Z,59.32
2023-03-06T09:16:51.608Z,59.39
2023-03-06T09:19:19.121Z,58.31
2023-03-06T09:21:46.818Z,57.28
2023-03-06T09:24:14.481Z,57.34
2023-03-06T09:26:46.874Z,57.26
2023-03-06T09:29:17.288Z,56.85
2023-03-06T09:31:44.903Z,56.97
2023-03-06T09:34:12.427Z,56.38
2023-03-06T09:36:54.982Z,55.54
2023-03-06T09:39:24.064Z,56.11
2023-03-06T09:41:51.619Z,56.12
2023-03-06T09:44:19.844Z,56.65
2023-03-06T09:46:47.342Z,55.44
2023-03-06T09:49:15.234Z,55.89
2023-03-06T09:51:42.694Z,56.14
2023-03-06T09:54:10.124Z,52.94
2023-03-06T09:56:37.621Z,53.31
2023-03-06T09:59:05.100Z,52.87
2023-03-06T10:01:33.032Z,52.44
2023-03-06T10:04:00.588Z,51.21
2023-03-06T10:06:30.971Z,49.45
2023-03-06T10:08:58.422Z,49.68
2023-03-06T10:11:25.923Z,51.15
2023-03-06T10:13:53.474Z,51.44
2023-03-06T10:16:20.955Z,50.96
2023-03-06T10:18:48.484Z,49.97
2023-03-06T10:21:19.324Z,49.94
2023-03-06T10:23:49.110Z,49.87
2023-03-06T10:26:16.901Z,49.42
2023-03-06T10:28:44.590Z,47.30
2023-03-06T10:31:12.140Z,48.39
2023-03-06T10:33:40.024Z,48.99
2023-03-06T10:36:07.679Z,48.19
2023-03-06T10:38:38.440Z,46.10
2023-03-06T10:41:06.269Z,46.90
2023-03-06T10:43:36.292Z,47.16
2023-03-06T10:46:05.116Z,45.89
2023-03-06T10:48:41.607Z,44.43
2023-03-06T10:51:17.749Z,44.00
2023-03-06T10:53:45.785Z,44.88
2023-03-06T10:56:13.327Z,45.33
2023-03-06T10:58:40.777Z,45.91
2023-03-06T11:01:08.436Z,45.38
2023-03-06T11:03:35.888Z,46.84
2023-03-06T11:06:04.072Z,46.37
2023-03-06T11:08:31.643Z,46.39
2023-03-06T11:10:59.203Z,44.33
2023-03-06T11:13:27.345Z,44.10
2023-03-06T11:15:54.865Z,44.61
2023-03-06T11:18:22.438Z,43.39
2023-03-06T11:20:53.039Z,42.29
2023-03-06T11:23:20.779Z,41.82
2023-03-06T11:25:51.064Z,42.01
2023-03-06T11:28:18.642Z,43.53
2023-03-06T11:30:46.315Z,43.54
2023-03-06T11:33:13.785Z,44.09
2023-03-06T11:35:41.467Z,45.23
2023-03-06T11:38:09.083Z,45.07
2023-03-06T11:40:36.732Z,45.08
2023-03-06T11:43:04.342Z,44.80
2023-03-06T11:45:37.331Z,43.76
2023-03-06T11:48:04.909Z,45.18
2023-03-06T11:50:32.699Z,45.43
2023-03-06T11:53:00.292Z,45.72
2023-03-06T11:55:27.892Z,45.96
2023-03-06T11:57:55.371Z,45.32
2023-03-06T12:00:23.049Z,45.52
2023-03-06T12:02:50.525Z,46.04
2023-03-06T12:05:18.070Z,46.20
2023-03-06T12:07:45.562Z,46.33
2023-03-06T12:10:13.028Z,46.62
2023-03-06T12:12:40.690Z,46.80
2023-03-06T12:15:08.195Z,50.42
2023-03-06T12:17:35.619Z,51.95
2023-03-06T12:20:06.632Z,45.32
2023-03-06T12:22:34.149Z,48.24
2023-03-06T12:25:01.856Z,47.70
2023-03-06T12:27:29.749Z,44.37
2023-03-06T12:29:57.475Z,44.00
2023-03-06T12:32:24.980Z,43.77
2023-03-06T12:34:52.668Z,42.53
2023-03-06T12:37:20.514Z,44.07
2023-03-06T12:39:48.181Z,44.90
2023-03-06T12:42:22.879Z,45.80
2023-03-06T12:44:50.926Z,45.45
2023-03-06T12:47:18.402Z,46.80
2023-03-06T12:49:47.470Z,47.79
2023-03-06T12:52:18.519Z,47.07
2023-03-06T12:54:46.450Z,47.58
2023-03-06T12:57:13.918Z,47.45
2023-03-06T12:59:44.087Z,47.86
2023-03-06T13:02:11.620Z,47.02
2023-03-06T13:04:39.142Z,47.25
2023-03-06T13:07:06.645Z,47.97
2023-03-06T13:09:34.072Z,48.51
2023-03-06T13:12:01.511Z,48.77
2023-03-06T13:14:29.176Z,49.59
2023-03-06T13:16:56.859Z,50.22
2023-03-06T13:19:24.428Z,50.51
2023-03-06T13:21:51.966Z,50.77
2023-03-06T13:24:19.517Z,51.35
2023-03-06T13:26:47.156Z,51.77
2023-03-06T13:29:14.663Z,52.53
2023-03-06T13:31:45.024Z,53.05
2023-03-06T13:34:12.541Z,53.20
2023-03-06T13:36:40.033Z,53.41
2023-03-06T13:39:08.532Z,53.90
2023-03-06T13:41:37.523Z,54.58
2023-03-06T13:44:05.062Z,55.02
2023-03-06T13:46:35.233Z,55.51
2023-03-06T13:49:03.012Z,55.91
2023-03-06T13:51:30.542Z,56.90
2023-03-06T13:53:58.066Z,57.05
2023-03-06T13:56:25.516Z,57.42
2023-03-06T13:58:53.143Z,57.59
2023-03-06T14:01:20.650Z,57.83
2023-03-06T14:03:48.126Z,58.01
2023-03-06T14:06:15.586Z,58.48
2023-03-06T14:08:43.019Z,58.33
2023-03-06T14:11:10.702Z,58.49
2023-03-06T14:13:47.246Z,58.59
2023-03-06T14:16:15.407Z,58.89
2023-03-06T14:18:42.939Z,59.14
2023-03-06T14:21:13.200Z,58.90
2023-03-06T14:23:43.730Z,58.26
2023-03-06T14:26:15.059Z,58.70
2023-03-06T14:28:42.642Z,58.66
2023-03-06T14:31:10.182Z,58.68
2023-03-06T14:33:37.675Z,58.78
2023-03-06T14:36:05.216Z,58.90
2023-03-06T14:38:32.706Z,59.14
2023-03-06T14:41:00.326Z,59.39
2023-03-06T14:43:27.926Z,59.80
2023-03-06T14:45:55.440Z,59.93
2023-03-06T14:48:23.012Z,60.22
2023-03-06T14:50:50.486Z,60.44
2023-03-06T14:53:18.086Z,60.48
2023-03-06T14:55:45.567Z,60.79
2023-03-06T14:58:13.100Z,60.95
2023-03-06T15:00:40.890Z,60.97
2023-03-06T15:03:08.426Z,60.63
2023-03-06T15:05:35.899Z,60.70
2023-03-06T15:08:03.442Z,60.98
2023-03-06T15:10:30.974Z,60.88
2023-03-06T15:12:58.471Z,60.84
2023-03-06T15:15:26.160Z,60.87
2023-03-06T15:17:54.402Z,60.89
2023-03-06T15:20:21.889Z,60.82
2023-03-06T15:22:49.363Z,61.04
2023-03-06T15:25:16.781Z,61.12
2023-03-06T15:27:44.238Z,61.30
2023-03-06T15:30:11.755Z,61.28
2023-03-06T15:32:42.543Z,61.23
2023-03-06T15:35:10.129Z,61.28
2023-03-06T15:37:37.670Z,61.35
2023-03-06T15:40:06.730Z,61.13
2023-03-06T15:42:34.351Z,61.03
2023-03-06T15:45:03.404Z,61.17
2023-03-06T15:47:31.057Z,61.67
2023-03-06T15:49:58.597Z,61.73
2023-03-06T15:52:26.049Z,61.71
2023-03-06T15:54:53.510Z,61.97
2023-03-06T15:57:20.969Z,62.26
2023-03-06T15:59:48.529Z,62.48
2023-03-06T16:02:16.242Z,62.78
2023-03-06T16:04:43.854Z,63.01
2023-03-06T16:07:11.401Z,63.23
2023-03-06T16:09:38.838Z,63.68
2023-03-06T16:12:06.273Z,63.88
2023-03-06T16:14:33.769Z,64.18
2023-03-06T16:17:01.578Z,64.41
2023-03-06T16:19:29.204Z,64.81
2023-03-06T16:21:56.821Z,64.98
2023-03-06T16:24:26.119Z,65.10
2023-03-06T16:26:53.668Z,65.08
2023-03-06T16:29:21.204Z,65.03
2023-03-06T16:31:48.781Z,65.07
2023-03-06T16:34:16.305Z,65.06
2023-03-06T16:36:43.814Z,65.11
2023-03-06T16:39:11.317Z,64.97
2023-03-06T16:41:38.796Z,64.93
2023-03-06T16:44:07.833Z,64.51
2023-03-06T16:46:35.318Z,64.30
2023-03-06T16:49:02.776Z,64.20
2023-03-06T16:51:30.536Z,64.23
2023-03-06T16:53:57.994Z,64.42
2023-03-06T16:56:25.457Z,64.47
2023-03-06T16:58:52.992Z,64.48
2023-03-06T17:01:20.527Z,64.61
2023-03-06T17:03:48.274Z,64.80
2023-03-06T17:06:15.845Z,64.99
2023-03-06T17:08:43.443Z,65.27
2023-03-06T17:11:10.897Z,65.61
2023-03-06T17:13:38.453Z,66.07
2023-03-06T17:16:06.194Z,66.58
2023-03-06T17:18:33.856Z,67.20
2023-03-06T17:21:01.442Z,67.55
2023-03-06T17:23:29.664Z,67.89
2023-03-06T17:25:57.121Z,68.40
2023-03-06T17:28:24.634Z,68.51
2023-03-06T17:30:52.106Z,68.80
2023-03-06T17:33:19.633Z,68.93
2023-03-06T17:35:49.138Z,69.24
2023-03-06T17:38:16.629Z,69.42
2023-03-06T17:40:44.090Z,69.60
2023-03-06T17:43:11.564Z,69.73
2023-03-06T17:45:39.019Z,70.05
2023-03-06T17:48:06.630Z,70.27
2023-03-06T17:50:34.153Z,70.47
2023-03-06T17:53:01.600Z,70.50
2023-03-06T17:55:29.907Z,70.57
2023-03-06T17:57:57.636Z,70.76
2023-03-06T18:00:25.194Z,70.66
2023-03-06T18:02:53.271Z,70.86
2023-03-06T18:05:23.284Z,70.71
2023-03-06T18:07:50.773Z,70.79
2023-03-06T18:10:18.291Z,70.91
2023-03-06T18:12:45.864Z,70.93
2023-03-06T18:15:13.534Z,70.96
2023-03-06T18:17:40.974Z,71.04
2023-03-06T18:20:08.475Z,71.07
2023-03-06T18:22:36.068Z,71.10
2023-03-06T18:25:03.558Z,71.30
2023-03-06T18:27:31.234Z,71.36
2023-03-06T18:29:58.709Z,71.67
2023-03-06T18:32:26.213Z,71.41
2023-03-06T18:34:55.208Z,71.39
2023-03-06T18:37:22.728Z,71.36
2023-03-06T18:39:50.242Z,71.37
2023-03-06T18:42:18.520Z,71.56
2023-03-06T18:44:48.075Z,71.50
2023-03-06T18:47:16.416Z,71.42
2023-03-06T18:49:49.791Z,71.31
2023-03-06T18:52:19.305Z,71.38
2023-03-06T18:54:50.020Z,71.39
2023-03-06T18:57:18.783Z,71.30
2023-03-06T18:59:47.778Z,71.24
2023-03-06T19:02:15.839Z,71.60
2023-03-06T19:04:43.680Z,71.47
2023-03-06T19:07:11.435Z,71.33
2023-03-06T19:09:38.943Z,71.41
2023-03-06T19:12:06.455Z,71.71
2023-03-06T19:14:36.267Z,71.90
2023-03-06T19:17:04.260Z,71.83
2023-03-06T19:19:31.734Z,71.73
2023-03-06T19:21:59.295Z,71.99
2023-03-06T19:24:27.008Z,72.02
2023-03-06T19:26:54.529Z,72.04
2023-03-06T19:29:22.469Z,72.19
2023-03-06T19:31:52.376Z,72.39
2023-03-06T19:34:19.952Z,72.46
2023-03-06T19:36:48.361Z,72.56
2023-03-06T19:39:18.257Z,72.73
2023-03-06T19:41:47.776Z,72.69
2023-03-06T19:44:16.388Z,72.66
2023-03-06T19:46:43.936Z,72.62
2023-03-06T19:49:12.196Z,72.84
2023-03-06T19:51:39.713Z,72.79
2023-03-06T19:54:09.955Z,72.78
2023-03-06T19:56:37.485Z,72.66
2023-03-06T19:59:05.047Z,72.74
2023-03-06T20:01:34.371Z,72.66
2023-03-06T20:04:02.194Z,72.62
2023-03-06T20:06:29.757Z,72.64
2023-03-06T20:08:57.351Z,72.60
2023-03-06T20:11:24.979Z,72.58
2023-03-06T20:13:52.536Z,72.52
2023-03-06T20:16:20.085Z,72.46
2023-03-06T20:18:47.769Z,72.45
2023-03-06T20:21:15.412Z,72.49
2023-03-06T20:23:43.346Z,72.46
2023-03-06T20:26:11.875Z,72.55
2023-03-06T20:28:39.511Z,72.61
2023-03-06T20:31:07.779Z,72.69
2023-03-06T20:33:35.368Z,72.85
2023-03-06T20:36:03.031Z,73.00
2023-03-06T20:38:30.796Z,73.07
2023-03-06T20:40:59.727Z,72.98
2023-03-06T20:43:27.249Z,73.01
2023-03-06T20:45:54.776Z,72.93
2023-03-06T20:48:22.288Z,73.10
2023-03-06T20:50:49.771Z,73.22
2023-03-06T20:53:17.412Z,73.33
2023-03-06T20:55:47.927Z,73.39
2023-03-06T20:58:16.934Z,73.84
2023-03-06T21:00:44.412Z,74.15
2023-03-06T21:03:11.929Z,74.18
2023-03-06T21:05:39.548Z,74.32
2023-03-06T21:08:07.315Z,74.84
2023-03-06T21:10:34.749Z,74.86
2023-03-06T21:13:02.263Z,74.86
2023-03-06T21:15:30.846Z,74.89
2023-03-06T21:17:58.320Z,74.96
2023-03-06T21:20:25.768Z,74.93
2023-03-06T21:22:53.326Z,74.90
2023-03-06T21:25:20.771Z,74.97
2023-03-06T21:27:48.364Z,74.90
2023-03-06T21:30:15.893Z,74.71
2023-03-06T21:32:43.518Z,74.48
2023-03-06T21:35:11.054Z,74.26
2023-03-06T21:37:38.758Z,74.08
2023-03-06T21:40:06.752Z,73.92
2023-03-06T21:42:35.862Z,73.79
2023-03-06T21:45:04.024Z,73.77
2023-03-06T21:47:37.725Z,73.70
2023-03-06T21:50:05.320Z,73.70
2023-03-06T21:52:32.763Z,73.63
2023-03-06T21:55:00.445Z,73.82
2023-03-06T21:57:27.964Z,74.01
2023-03-06T21:59:55.417Z,74.09
2023-03-06T22:02:22.879Z,74.20
2023-03-06T22:04:51.172Z,74.39
2023-03-06T22:07:18.681Z,74.52
2023-03-06T22:09:46.158Z,74.49
2023-03-06T22:12:13.763Z,74.46
2023-03-06T22:14:41.474Z,74.31
2023-03-06T22:17:09.093Z,74.28
2023-03-06T22:19:36.651Z,74.06
2023-03-06T22:22:04.111Z,73.93
2023-03-06T22:24:31.985Z,73.82
2023-03-06T22:26:59.588Z,73.86
2023-03-06T22:29:27.180Z,73.77
2023-03-06T22:31:54.677Z,73.74
2023-03-06T22:34:22.251Z,73.63
2023-03-06T22:36:49.750Z,73.53
2023-03-06T22:39:17.254Z,73.45
2023-03-06T22:41:44.741Z,73.73
2023-03-06T22:44:12.164Z,74.07
2023-03-06T22:46:39.657Z,74.12
2023-03-06T22:49:07.200Z,74.35
2023-03-06T22:51:37.436Z,74.35
2023-03-06T22:54:04.904Z,74.45
2023-03-06T22:56:32.579Z,74.22
2023-03-06T22:59:00.259Z,74.10
2023-03-06T23:01:27.807Z,74.10
2023-03-06T23:03:55.535Z,74.09
2023-03-06T23:06:23.661Z,74.46
2023-03-06T23:08:51.142Z,75.03
2023-03-06T23:11:19.787Z,75.35
2023-03-06T23:13:47.321Z,75.60
2023-03-06T23:16:14.960Z,75.80
2023-03-06T23:18:42.518Z,75.99
2023-03-06T23:21:09.975Z,75.68
2023-03-06T23:23:37.473Z,75.72
2023-03-06T23:26:04.966Z,75.82
2023-03-06T23:28:32.516Z,75.63
2023-03-06T23:31:00.214Z,75.72
2023-03-06T23:33:28.619Z,75.68
2023-03-06T23:35:56.267Z,75.88
2023-03-06T23:38:23.854Z,75.94
2023-03-06T23:40:51.404Z,76.21
2023-03-06T23:43:18.857Z,76.46
2023-03-06T23:45:46.354Z,76.66
2023-03-06T23:48:13.870Z,77.76
2023-03-06T23:50:41.399Z,77.46
2023-03-06T23:53:08.840Z,77.30
2023-03-06T23:55:36.403Z,77.15
2023-03-06T23:58:03.892Z,77.06
